createdAt,value
2019-05-02T00:01:44.437Z,68.10
2019-05-02T00:04:19.930Z,68.20
2019-05-02T00:06:48.265Z,68.40
2019-05-02T00:09:18.528Z,68.80
2019-05-02T00:11:58.214Z,68.80
2019-05-02T00:14:21.106Z,68.60
2019-05-02T00:16:50.958Z,68.30
2019-05-02T00:19:22.024Z,68.20
2019-05-02T00:21:51.908Z,67.90
2019-05-02T00:24:21.762Z,68.50
2019-05-02T00:26:55.927Z,68.30
2019-05-02T00:29:23.783Z,68.30
2019-05-02T00:31:54.752Z,68.20
2019-05-02T00:34:24.584Z,68.50
2019-05-02T00:36:54.367Z,68.60
2019-05-02T00:39:24.193Z,68.50
2019-05-02T00:41:53.977Z,68.40
2019-05-02T00:44:23.865Z,68.60
2019-05-02T00:46:55.294Z,68.70
2019-05-02T00:49:25.206Z,68.80
2019-05-02T00:51:56.565Z,68.60
2019-05-02T00:54:27.028Z,68.90
2019-05-02T00:56:56.849Z,69.40
2019-05-02T00:59:26.648Z,69.90
2019-05-02T01:02:00.141Z,70.00
2019-05-02T01:04:34.721Z,69.50
2019-05-02T01:07:04.798Z,69.60
2019-05-02T01:09:34.687Z,70.10
2019-05-02T01:12:08.421Z,69.70
2019-05-02T01:14:36.075Z,69.60
2019-05-02T01:17:05.881Z,69.90
2019-05-02T01:19:35.666Z,70.10
2019-05-02T01:22:05.659Z,70.60
2019-05-02T01:24:39.801Z,70.70
2019-05-02T01:27:11.500Z,70.40
2019-05-02T01:29:46.766Z,70.40
2019-05-02T01:32:25.241Z,70.60
2019-05-02T01:34:57.483Z,71.00
2019-05-02T01:37:28.923Z,71.00
2019-05-02T01:39:58.849Z,70.90
2019-05-02T01:42:39.344Z,70.90
2019-05-02T01:45:00.271Z,70.90
2019-05-02T01:47:34.255Z,70.70
2019-05-02T01:50:01.846Z,70.70
2019-05-02T01:52:32.357Z,71.40
2019-05-02T01:55:02.213Z,71.10
2019-05-02T01:57:34.142Z,71.30
2019-05-02T02:00:09.465Z,71.80
2019-05-02T02:02:37.743Z,71.60
2019-05-02T02:05:08.905Z,71.80
2019-05-02T02:07:38.702Z,71.70
2019-05-02T02:10:08.614Z,71.70
2019-05-02T02:12:41.233Z,72.00
2019-05-02T02:15:10.949Z,71.90
2019-05-02T02:17:41.145Z,71.80
2019-05-02T02:20:15.695Z,71.80
2019-05-02T02:22:49.821Z,71.80
2019-05-02T02:25:40.443Z,71.80
2019-05-02T02:28:10.467Z,72.00
2019-05-02T02:30:40.251Z,71.80
2019-05-02T02:33:10.142Z,72.30
2019-05-02T02:35:49.562Z,72.40
2019-05-02T02:38:11.769Z,72.60
2019-05-02T02:40:41.643Z,72.30
2019-05-02T02:43:32.242Z,72.50
2019-05-02T02:45:57.602Z,72.30
2019-05-02T02:48:33.928Z,72.40
2019-05-02T02:50:59.558Z,72.20
2019-05-02T02:53:32.060Z,72.30
2019-05-02T02:56:06.997Z,72.30
2019-05-02T02:58:45.628Z,72.40
2019-05-02T03:01:08.601Z,72.40
2019-05-02T03:03:38.373Z,72.40
2019-05-02T03:06:08.661Z,72.90
2019-05-02T03:08:46.078Z,72.80
2019-05-02T03:11:22.385Z,72.70
2019-05-02T03:14:00.085Z,72.60
2019-05-02T03:16:27.069Z,72.70
2019-05-02T03:18:56.879Z,72.60
2019-05-02T03:21:26.661Z,72.50
2019-05-02T03:24:03.142Z,72.20
2019-05-02T03:26:27.996Z,72.10
2019-05-02T03:29:00.508Z,72.20
2019-05-02T03:31:31.363Z,72.20
2019-05-02T03:34:01.761Z,72.60
2019-05-02T03:36:35.987Z,72.90
2019-05-02T03:39:13.970Z,72.90
2019-05-02T03:41:35.824Z,72.80
2019-05-02T03:44:11.089Z,72.60
2019-05-02T03:46:38.177Z,72.90
2019-05-02T03:49:09.738Z,72.80
2019-05-02T03:51:39.858Z,72.80
2019-05-02T03:54:10.427Z,72.60
2019-05-02T03:56:44.702Z,72.70
2019-05-02T03:59:11.997Z,73.10
2019-05-02T04:01:43.148Z,73.40
2019-05-02T04:04:14.278Z,73.30
2019-05-02T04:06:44.980Z,73.10
2019-05-02T04:09:38.888Z,73.00
2019-05-02T04:12:11.604Z,73.00
2019-05-02T04:14:38.932Z,73.30
2019-05-02T04:17:10.564Z,73.30
2019-05-02T04:19:41.030Z,73.60
2019-05-02T04:22:12.022Z,73.60
2019-05-02T04:24:47.779Z,73.80
2019-05-02T04:27:14.438Z,74.20
2019-05-02T04:29:44.285Z,75.40
2019-05-02T04:32:14.882Z,74.60
2019-05-02T04:34:48.899Z,74.60
2019-05-02T04:37:16.518Z,74.20
2019-05-02T04:39:49.120Z,73.80
2019-05-02T04:42:22.974Z,73.30
2019-05-02T04:45:11.663Z,72.90
2019-05-02T04:47:22.350Z,72.70
2019-05-02T04:49:52.442Z,72.70
2019-05-02T04:52:22.221Z,72.70
2019-05-02T04:54:52.132Z,72.60
2019-05-02T04:57:29.250Z,72.40
2019-05-02T05:00:05.060Z,72.10
2019-05-02T05:02:34.110Z,71.30
2019-05-02T05:04:58.208Z,70.50
2019-05-02T05:07:31.072Z,69.40
2019-05-02T05:10:03.172Z,68.50
2019-05-02T05:12:32.531Z,67.20
2019-05-02T05:15:04.841Z,65.60
2019-05-02T05:17:34.753Z,64.20
2019-05-02T05:20:13.700Z,63.50
2019-05-02T05:22:44.251Z,62.30
2019-05-02T05:25:17.781Z,61.80
2019-05-02T05:27:47.907Z,60.80
2019-05-02T05:30:18.641Z,60.20
2019-05-02T05:32:48.674Z,59.50
2019-05-02T05:35:18.580Z,59.50
2019-05-02T05:37:52.922Z,58.90
2019-05-02T05:40:22.662Z,58.50
2019-05-02T05:42:51.739Z,58.10
2019-05-02T05:45:21.602Z,58.40
2019-05-02T05:47:52.403Z,58.40
2019-05-02T05:50:22.983Z,58.30
2019-05-02T05:52:52.823Z,58.40
2019-05-02T05:55:24.458Z,58.60
2019-05-02T05:58:01.802Z,58.50
2019-05-02T06:00:27.910Z,58.80
2019-05-02T06:03:10.305Z,59.70
2019-05-02T06:05:33.313Z,61.00
2019-05-02T06:08:00.882Z,60.60
2019-05-02T06:10:31.421Z,59.90
2019-05-02T06:13:05.151Z,59.60
2019-05-02T06:15:33.989Z,59.00
2019-05-02T06:18:06.068Z,58.70
2019-05-02T06:20:35.975Z,58.00
2019-05-02T06:23:05.862Z,57.30
2019-05-02T06:25:36.704Z,57.20
2019-05-02T06:28:06.997Z,56.40
2019-05-02T06:30:36.906Z,55.40
2019-05-02T06:33:06.703Z,54.20
2019-05-02T06:35:36.538Z,52.80
2019-05-02T06:38:06.373Z,51.60
2019-05-02T06:40:39.228Z,50.00
2019-05-02T06:43:09.666Z,49.50
2019-05-02T06:45:39.772Z,49.00
2019-05-02T06:48:17.265Z,48.00
2019-05-02T06:50:43.422Z,47.60
2019-05-02T06:53:13.338Z,47.10
2019-05-02T06:55:43.161Z,46.80
2019-05-02T06:58:13.289Z,46.80
2019-05-02T07:00:56.839Z,47.00
2019-05-02T07:03:15.046Z,47.20
2019-05-02T07:05:45.012Z,46.70
2019-05-02T07:08:14.947Z,47.00
2019-05-02T07:10:45.298Z,47.40
2019-05-02T07:13:15.612Z,47.30
2019-05-02T07:15:51.209Z,47.50
2019-05-02T07:18:22.718Z,48.50
2019-05-02T07:20:53.092Z,49.10
2019-05-02T07:23:22.987Z,48.30
2019-05-02T07:25:53.763Z,47.60
2019-05-02T07:28:24.131Z,47.40
2019-05-02T07:30:54.750Z,46.90
2019-05-02T07:33:24.857Z,46.80
2019-05-02T07:35:55.285Z,46.10
2019-05-02T07:38:27.559Z,45.40
2019-05-02T07:40:59.067Z,43.40
2019-05-02T07:43:29.040Z,42.10
2019-05-02T07:45:59.960Z,41.40
2019-05-02T07:48:29.881Z,41.30
2019-05-02T07:50:59.803Z,40.80
2019-05-02T07:53:29.609Z,40.30
2019-05-02T07:55:59.533Z,39.80
2019-05-02T07:58:29.861Z,39.50
2019-05-02T08:00:59.778Z,40.00
2019-05-02T08:03:33.486Z,40.00
2019-05-02T08:06:01.323Z,39.70
2019-05-02T08:08:31.844Z,39.40
2019-05-02T08:11:03.155Z,38.30
2019-05-02T08:13:33.190Z,37.70
2019-05-02T08:16:03.022Z,37.60
2019-05-02T08:18:32.969Z,37.20
2019-05-02T08:21:03.693Z,37.00
2019-05-02T08:23:33.539Z,36.50
2019-05-02T08:26:03.378Z,36.00
2019-05-02T08:28:34.892Z,35.00
2019-05-02T08:31:04.717Z,34.50
2019-05-02T08:33:35.915Z,35.10
2019-05-02T08:36:06.065Z,34.90
2019-05-02T08:38:35.921Z,35.40
2019-05-02T08:41:05.901Z,34.40
2019-05-02T08:43:40.079Z,33.80
2019-05-02T08:46:09.371Z,33.30
2019-05-02T08:48:41.873Z,33.00
2019-05-02T08:51:10.401Z,32.40
2019-05-02T08:53:40.297Z,31.70
2019-05-02T08:56:10.133Z,31.60
2019-05-02T08:58:44.898Z,31.40
2019-05-02T09:01:13.672Z,30.60
2019-05-02T09:03:57.113Z,30.80
2019-05-02T09:06:17.239Z,30.30
2019-05-02T09:08:51.376Z,30.30
2019-05-02T09:11:18.382Z,30.00
2019-05-02T09:13:48.341Z,29.90
2019-05-02T09:16:21.588Z,29.60
2019-05-02T09:18:51.874Z,29.10
2019-05-02T09:21:22.006Z,29.60
2019-05-02T09:23:52.681Z,29.00
2019-05-02T09:26:35.021Z,29.20
2019-05-02T09:28:56.287Z,28.70
2019-05-02T09:31:25.850Z,29.10
2019-05-02T09:33:55.830Z,28.90
2019-05-02T09:36:25.728Z,28.70
2019-05-02T09:38:57.559Z,29.10
2019-05-02T09:41:34.504Z,29.10
2019-05-02T09:43:59.585Z,29.30
2019-05-02T09:46:29.526Z,29.70
2019-05-02T09:49:04.301Z,30.20
2019-05-02T09:51:32.515Z,30.10
2019-05-02T09:54:06.241Z,30.40
2019-05-02T09:56:33.926Z,30.90
2019-05-02T09:59:23.270Z,30.80
2019-05-02T10:01:38.801Z,30.80
2019-05-02T10:04:08.754Z,31.00
2019-05-02T10:06:38.594Z,31.30
2019-05-02T10:09:09.326Z,31.10
2019-05-02T10:11:39.197Z,30.70
2019-05-02T10:14:11.796Z,30.30
2019-05-02T10:16:42.653Z,30.90
2019-05-02T10:19:13.458Z,31.10
2019-05-02T10:21:47.039Z,31.50
2019-05-02T10:24:14.985Z,31.60
2019-05-02T10:26:44.773Z,31.60
2019-05-02T10:29:14.766Z,31.80
2019-05-02T10:31:44.847Z,31.70
2019-05-02T10:34:17.625Z,31.40
2019-05-02T10:36:46.225Z,31.30
2019-05-02T10:39:16.197Z,31.40
2019-05-02T10:41:46.011Z,31.50
2019-05-02T10:44:15.849Z,31.70
2019-05-02T10:46:52.300Z,31.10
2019-05-02T10:49:23.905Z,31.40
2019-05-02T10:51:54.993Z,31.40
2019-05-02T10:54:28.029Z,31.70
2019-05-02T10:56:56.443Z,31.80
2019-05-02T10:59:26.348Z,32.60
2019-05-02T11:02:03.655Z,33.10
2019-05-02T11:04:35.214Z,33.40
2019-05-02T11:07:05.346Z,33.20
2019-05-02T11:09:35.837Z,33.30
2019-05-02T11:12:08.150Z,32.90
2019-05-02T11:14:42.610Z,32.50
2019-05-02T11:17:17.976Z,32.40
2019-05-02T11:19:49.706Z,32.80
2019-05-02T11:22:20.494Z,33.10
2019-05-02T11:24:52.208Z,33.00
2019-05-02T11:27:22.220Z,33.10
2019-05-02T11:29:52.582Z,33.60
2019-05-02T11:32:22.626Z,33.70
2019-05-02T11:34:52.576Z,33.70
2019-05-02T11:37:22.678Z,33.60
2019-05-02T11:39:58.586Z,33.60
2019-05-02T11:42:27.251Z,33.70
2019-05-02T11:44:55.833Z,34.20
2019-05-02T11:47:26.667Z,33.90
2019-05-02T11:49:56.726Z,34.20
2019-05-02T11:52:27.371Z,33.10
2019-05-02T11:54:58.066Z,33.30
2019-05-02T11:57:30.277Z,33.00
2019-05-02T12:00:04.112Z,33.30
2019-05-02T12:02:36.886Z,33.20
2019-05-02T12:05:12.768Z,33.70
2019-05-02T12:07:42.783Z,33.70
2019-05-02T12:10:12.675Z,33.70
2019-05-02T12:12:43.554Z,33.60
2019-05-02T12:15:13.545Z,33.90
2019-05-02T12:17:43.503Z,32.60
2019-05-02T12:20:14.408Z,32.70
2019-05-02T12:22:44.200Z,32.70
2019-05-02T12:25:14.151Z,32.90
2019-05-02T12:27:44.752Z,33.30
2019-05-02T12:30:16.265Z,33.70
2019-05-02T12:32:46.157Z,33.20
2019-05-02T12:35:16.062Z,32.90
2019-05-02T12:37:46.995Z,33.30
2019-05-02T12:40:18.963Z,33.00
2019-05-02T12:42:48.784Z,32.10
2019-05-02T12:45:18.702Z,32.00
2019-05-02T12:47:48.577Z,32.00
2019-05-02T12:50:19.378Z,32.70
2019-05-02T12:52:52.044Z,32.50
2019-05-02T12:55:22.176Z,33.30
2019-05-02T12:57:52.473Z,33.50
2019-05-02T13:00:22.703Z,32.60
2019-05-02T13:03:13.868Z,32.40
2019-05-02T13:05:43.770Z,32.60
2019-05-02T13:08:13.673Z,32.40
2019-05-02T13:11:02.324Z,32.70
2019-05-02T13:13:32.655Z,33.00
2019-05-02T13:16:03.874Z,33.10
2019-05-02T13:18:37.167Z,33.00
2019-05-02T13:21:08.183Z,33.10
2019-05-02T13:23:56.734Z,33.10
2019-05-02T13:26:27.367Z,33.20
2019-05-02T13:28:57.236Z,33.00
2019-05-02T13:31:34.222Z,32.90
2019-05-02T13:34:11.699Z,33.20
2019-05-02T13:36:44.526Z,33.30
2019-05-02T13:39:22.025Z,33.20
2019-05-02T13:41:52.259Z,32.90
2019-05-02T13:44:23.882Z,33.40
2019-05-02T13:46:54.511Z,33.40
2019-05-02T13:49:24.416Z,33.40
2019-05-02T13:51:54.382Z,33.40
2019-05-02T13:54:24.224Z,33.50
2019-05-02T13:56:54.114Z,33.60
2019-05-02T13:59:24.897Z,33.70
2019-05-02T14:01:55.214Z,33.80
2019-05-02T14:04:25.091Z,34.00
2019-05-02T14:06:55.598Z,34.10
2019-05-02T14:09:33.558Z,34.20
2019-05-02T14:12:08.761Z,34.30
2019-05-02T14:14:39.304Z,34.30
2019-05-02T14:17:09.113Z,34.70
2019-05-02T14:19:39.034Z,34.50
2019-05-02T14:22:09.011Z,34.40
2019-05-02T14:24:38.822Z,34.60
2019-05-02T14:27:12.793Z,34.60
2019-05-02T14:29:42.291Z,35.30
2019-05-02T14:32:21.381Z,34.90
2019-05-02T14:34:46.846Z,35.10
2019-05-02T14:37:16.787Z,35.30
2019-05-02T14:39:48.339Z,35.10
2019-05-02T14:42:22.165Z,35.20
2019-05-02T14:45:05.732Z,35.30
2019-05-02T14:47:22.419Z,35.70
2019-05-02T14:49:56.707Z,35.10
2019-05-02T14:52:24.685Z,35.30
2019-05-02T14:54:55.701Z,35.20
2019-05-02T14:57:27.239Z,35.70
2019-05-02T14:59:59.521Z,35.80
2019-05-02T15:02:47.261Z,35.90
2019-05-02T15:05:19.194Z,35.70
2019-05-02T15:07:46.398Z,36.40
2019-05-02T15:10:16.601Z,36.00
2019-05-02T15:12:46.461Z,36.10
2019-05-02T15:15:16.613Z,35.10
2019-05-02T15:17:46.502Z,34.60
2019-05-02T15:20:16.493Z,34.80
2019-05-02T15:22:47.255Z,34.40
2019-05-02T15:25:17.943Z,34.70
2019-05-02T15:27:49.899Z,34.60
2019-05-02T15:30:20.029Z,34.50
2019-05-02T15:32:54.128Z,34.30
2019-05-02T15:35:28.338Z,34.30
2019-05-02T15:38:02.769Z,34.20
2019-05-02T15:43:02.842Z,33.70
2019-05-02T15:45:36.742Z,33.70
2019-05-02T15:48:05.563Z,33.60
2019-05-02T15:50:35.364Z,33.50
2019-05-02T15:53:10.137Z,33.30
2019-05-02T15:55:40.129Z,33.70
2019-05-02T15:58:16.945Z,33.60
2019-05-02T16:01:00.744Z,34.00
2019-05-02T16:03:29.571Z,33.70
2019-05-02T16:05:59.391Z,33.30
2019-05-02T16:08:32.552Z,33.50
2019-05-02T16:11:02.974Z,33.50
2019-05-02T16:13:32.879Z,34.20
2019-05-02T16:16:05.392Z,33.70
2019-05-02T16:18:36.133Z,33.60
2019-05-02T16:21:08.013Z,32.90
2019-05-02T16:23:37.960Z,33.30
2019-05-02T16:26:08.923Z,33.50
2019-05-02T16:28:44.214Z,33.50
2019-05-02T16:31:12.580Z,33.50
2019-05-02T16:33:42.476Z,33.50
2019-05-02T16:36:12.622Z,33.20
2019-05-02T16:38:42.658Z,33.20
2019-05-02T16:41:13.193Z,33.30
2019-05-02T16:43:43.078Z,33.30
2019-05-02T16:46:14.287Z,33.60
2019-05-02T16:48:44.810Z,33.90
2019-05-02T16:51:29.877Z,33.60
2019-05-02T16:53:46.273Z,33.30
2019-05-02T16:56:16.118Z,33.10
2019-05-02T16:58:47.207Z,33.40
2019-05-02T17:01:24.549Z,33.50
2019-05-02T17:03:49.893Z,33.30
2019-05-02T17:06:22.363Z,32.90
2019-05-02T17:09:11.937Z,32.90
2019-05-02T17:11:43.501Z,32.70
2019-05-02T17:14:13.586Z,32.70
2019-05-02T17:16:47.075Z,32.90
2019-05-02T17:19:15.761Z,33.10
2019-05-02T17:21:55.383Z,33.10
2019-05-02T17:24:21.627Z,33.20
2019-05-02T17:26:48.697Z,33.40
2019-05-02T17:29:21.330Z,33.30
2019-05-02T17:31:55.378Z,33.30
2019-05-02T17:34:23.031Z,33.30
2019-05-02T17:36:53.916Z,33.60
2019-05-02T17:39:23.949Z,33.70
2019-05-02T17:41:53.806Z,33.40
2019-05-02T17:44:24.712Z,33.50
2019-05-02T17:46:58.229Z,33.40
2019-05-02T17:49:34.904Z,33.40
2019-05-02T17:52:19.843Z,33.40
2019-05-02T17:54:47.974Z,33.60
2019-05-02T17:57:17.894Z,33.20
2019-05-02T17:59:47.692Z,33.30
2019-05-02T18:02:17.532Z,33.50
2019-05-02T18:04:52.087Z,33.50
2019-05-02T18:07:19.136Z,33.70
2019-05-02T18:09:48.957Z,33.70
2019-05-02T18:12:18.845Z,34.00
2019-05-02T18:14:51.424Z,34.20
2019-05-02T18:17:21.909Z,34.30
2019-05-02T18:19:52.142Z,34.50
2019-05-02T18:22:24.209Z,34.60
2019-05-02T18:24:53.457Z,34.70
2019-05-02T18:27:23.230Z,34.80
2019-05-02T18:29:53.057Z,35.00
2019-05-02T18:32:26.071Z,35.10
2019-05-02T18:34:56.784Z,35.20
2019-05-02T18:37:25.847Z,35.40
2019-05-02T18:39:56.322Z,35.70
2019-05-02T18:42:26.229Z,36.00
2019-05-02T18:44:56.472Z,36.00
2019-05-02T18:47:26.257Z,36.30
2019-05-02T18:50:01.811Z,36.40
2019-05-02T18:52:36.440Z,36.60
2019-05-02T18:54:59.194Z,36.70
2019-05-02T18:57:29.651Z,37.00
2019-05-02T18:59:59.497Z,37.40
2019-05-02T19:02:32.775Z,37.50
2019-05-02T19:05:01.968Z,37.70
2019-05-02T19:07:35.333Z,37.70
2019-05-02T19:10:07.365Z,37.80
2019-05-02T19:12:37.345Z,38.00
2019-05-02T19:15:07.782Z,38.20
2019-05-02T19:17:39.232Z,38.50
2019-05-02T19:20:24.599Z,39.10
2019-05-02T19:22:56.976Z,39.90
2019-05-02T19:25:27.210Z,40.10
2019-05-02T19:28:04.402Z,40.30
2019-05-02T19:30:38.557Z,40.70
2019-05-02T19:33:09.424Z,40.90
2019-05-02T19:35:43.163Z,41.60
2019-05-02T19:38:11.898Z,41.60
2019-05-02T19:40:42.736Z,41.90
2019-05-02T19:43:14.767Z,42.00
2019-05-02T19:45:45.693Z,42.40
2019-05-02T19:48:16.798Z,42.60
2019-05-02T19:50:46.913Z,43.30
2019-05-02T19:53:18.353Z,43.30
2019-05-02T19:55:48.341Z,43.20
2019-05-02T19:58:18.180Z,43.70
2019-05-02T20:00:48.195Z,43.90
2019-05-02T20:03:21.742Z,44.50
2019-05-02T20:05:51.883Z,43.80
2019-05-02T20:08:24.462Z,44.20
2019-05-02T20:10:56.839Z,44.80
2019-05-02T20:13:28.015Z,45.00
2019-05-02T20:16:11.875Z,44.70
2019-05-02T20:18:43.845Z,44.80
2019-05-02T20:21:27.227Z,45.30
2019-05-02T20:23:52.536Z,45.10
2019-05-02T20:26:22.381Z,45.20
2019-05-02T20:28:52.756Z,45.30
2019-05-02T20:31:22.700Z,45.30
2019-05-02T20:33:52.530Z,45.20
2019-05-02T20:36:22.803Z,45.20
2019-05-02T20:38:52.851Z,45.60
2019-05-02T20:41:22.678Z,45.70
2019-05-02T20:43:52.578Z,45.50
2019-05-02T20:46:22.466Z,45.90
2019-05-02T20:48:52.665Z,46.30
2019-05-02T20:51:22.869Z,46.20
2019-05-02T20:53:52.829Z,46.70
2019-05-02T20:56:23.124Z,47.20
2019-05-02T20:58:53.109Z,47.00
2019-05-02T21:01:23.911Z,47.10
2019-05-02T21:03:53.873Z,47.30
2019-05-02T21:06:40.531Z,47.40
2019-05-02T21:09:06.739Z,47.30
2019-05-02T21:11:36.866Z,47.60
2019-05-02T21:14:06.823Z,47.70
2019-05-02T21:16:36.593Z,48.00
2019-05-02T21:19:06.418Z,48.20
2019-05-02T21:21:36.779Z,48.40
2019-05-02T21:24:06.545Z,48.60
2019-05-02T21:26:36.319Z,49.10
2019-05-02T21:29:06.394Z,49.30
2019-05-02T21:31:36.166Z,49.70
2019-05-02T21:34:07.325Z,49.30
2019-05-02T21:36:37.413Z,49.20
2019-05-02T21:39:11.994Z,49.10
2019-05-02T21:41:42.380Z,49.00
2019-05-02T21:44:13.190Z,48.80
2019-05-02T21:46:43.258Z,48.90
2019-05-02T21:49:15.549Z,49.60
2019-05-02T21:51:47.037Z,50.10
2019-05-02T21:54:22.646Z,50.30
2019-05-02T21:56:54.134Z,50.30
2019-05-02T21:59:23.967Z,50.00
2019-05-02T22:01:55.578Z,50.50
2019-05-02T22:04:25.352Z,50.50
2019-05-02T22:06:55.127Z,50.20
2019-05-02T22:09:25.798Z,50.10
2019-05-02T22:11:56.649Z,50.20
2019-05-02T22:14:26.446Z,50.40
2019-05-02T22:16:56.212Z,50.60
2019-05-02T22:19:26.051Z,50.60
2019-05-02T22:21:56.265Z,50.60
2019-05-02T22:24:26.178Z,50.80
2019-05-02T22:26:56.001Z,50.80
2019-05-02T22:29:25.819Z,51.40
2019-05-02T22:31:55.642Z,51.60
2019-05-02T22:34:25.438Z,51.70
2019-05-02T22:36:55.259Z,51.50
2019-05-02T22:39:42.157Z,52.00
2019-05-02T22:42:12.728Z,52.60
2019-05-02T22:44:42.786Z,52.50
2019-05-02T22:47:14.090Z,52.90
2019-05-02T22:49:43.994Z,53.20
2019-05-02T22:52:14.346Z,53.40
2019-05-02T22:54:45.069Z,53.10
2019-05-02T22:57:15.490Z,52.80
2019-05-02T22:59:45.320Z,52.80
2019-05-02T23:02:15.562Z,52.50
2019-05-02T23:04:45.496Z,52.40
2019-05-02T23:07:16.118Z,52.30
2019-05-02T23:09:45.950Z,51.90
2019-05-02T23:12:15.929Z,51.60
2019-05-02T23:14:45.780Z,51.40
2019-05-02T23:17:15.654Z,51.30
2019-05-02T23:19:45.491Z,51.30
2019-05-02T23:22:16.126Z,51.60
2019-05-02T23:25:03.679Z,51.70
2019-05-02T23:27:42.408Z,51.90
2019-05-02T23:30:14.474Z,52.00
2019-05-02T23:32:44.350Z,52.00
2019-05-02T23:35:14.257Z,52.00
2019-05-02T23:37:44.027Z,52.20
2019-05-02T23:40:14.658Z,52.20
2019-05-02T23:42:44.433Z,52.30
2019-05-02T23:45:14.290Z,52.30
2019-05-02T23:47:44.089Z,52.40
2019-05-02T23:50:14.000Z,52.40
2019-05-02T23:52:43.825Z,52.40
2019-05-02T23:55:14.713Z,52.40
2019-05-02T23:57:44.566Z,52.30
